createdAt,value
2022-10-18T00:01:04.013Z,0.20
2022-10-18T00:03:32.828Z,0.52
2022-10-18T00:06:01.312Z,0.30
2022-10-18T00:08:31.085Z,0.17
2022-10-18T00:10:59.239Z,0.17
2022-10-18T00:13:27.421Z,0.40
2022-10-18T00:15:57.622Z,0.20
2022-10-18T00:18:25.923Z,0.30
2022-10-18T00:21:01.952Z,0.32
2022-10-18T00:23:32.866Z,0.28
2022-10-18T00:26:03.503Z,0.30
2022-10-18T00:28:32.167Z,0.20
2022-10-18T00:31:10.625Z,0.28
2022-10-18T00:33:38.820Z,0.40
2022-10-18T00:36:07.420Z,0.40
2022-10-18T00:38:37.192Z,0.20
2022-10-18T00:41:06.713Z,0.55
2022-10-18T00:43:35.054Z,0.45
2022-10-18T00:46:03.092Z,0.30
2022-10-18T00:48:31.181Z,0.22
2022-10-18T00:50:59.252Z,0.40
2022-10-18T00:53:27.421Z,0.52
2022-10-18T00:55:58.392Z,0.15
2022-10-18T00:58:26.703Z,0.30
2022-10-18T01:00:54.732Z,0.20
2022-10-18T01:03:22.950Z,0.40
2022-10-18T01:05:51.114Z,0.32
2022-10-18T01:08:37.146Z,0.20
2022-10-18T01:11:18.712Z,0.40
2022-10-18T01:14:01.072Z,0.20
2022-10-18T01:16:34.394Z,0.20
2022-10-18T01:19:08.282Z,0.17
2022-10-18T01:21:43.482Z,0.45
2022-10-18T01:24:46.935Z,0.30
2022-10-18T01:27:31.787Z,0.22
2022-10-18T01:30:20.672Z,0.20
2022-10-18T01:32:52.170Z,0.22
2022-10-18T01:35:23.553Z,0.15
2022-10-18T01:37:53.722Z,0.40
2022-10-18T01:40:24.773Z,0.40
2022-10-18T01:42:53.550Z,0.40
2022-10-18T01:45:24.462Z,0.40
2022-10-18T01:47:53.575Z,0.35
2022-10-18T01:50:30.172Z,0.43
2022-10-18T01:52:59.062Z,0.25
2022-10-18T01:55:33.063Z,0.22
2022-10-18T01:58:09.521Z,0.20
2022-10-18T02:00:43.049Z,0.50
2022-10-18T02:03:21.055Z,0.50
2022-10-18T02:05:55.862Z,0.20
2022-10-18T02:08:31.433Z,0.28
2022-10-18T02:11:03.522Z,0.57
2022-10-18T02:13:37.570Z,0.40
2022-10-18T02:16:10.970Z,0.20
2022-10-18T02:18:43.293Z,0.32
2022-10-18T02:21:14.815Z,0.45
2022-10-18T02:23:45.102Z,0.32
2022-10-18T02:26:13.436Z,0.15
2022-10-18T02:28:42.092Z,0.47
2022-10-18T02:31:20.320Z,0.38
2022-10-18T02:33:54.351Z,0.40
2022-10-18T02:36:27.970Z,0.30
2022-10-18T02:39:01.525Z,0.47
2022-10-18T02:41:31.702Z,0.60
2022-10-18T02:43:59.936Z,0.30
2022-10-18T02:46:29.630Z,0.13
2022-10-18T02:48:57.674Z,0.60
2022-10-18T02:51:26.271Z,0.40
2022-10-18T02:53:54.323Z,0.60
2022-10-18T02:56:22.452Z,0.25
2022-10-18T02:58:50.520Z,0.35
2022-10-18T03:01:18.774Z,0.20
2022-10-18T03:03:48.180Z,0.20
2022-10-18T03:06:16.244Z,0.20
2022-10-18T03:08:44.362Z,0.15
2022-10-18T03:11:12.453Z,0.40
2022-10-18T03:13:40.452Z,0.30
2022-10-18T03:16:08.665Z,0.20
2022-10-18T03:18:36.712Z,0.17
2022-10-18T03:21:07.721Z,0.40
2022-10-18T03:23:36.635Z,0.38
2022-10-18T03:26:05.245Z,0.45
2022-10-18T03:28:33.492Z,0.50
2022-10-18T03:31:02.545Z,0.55
2022-10-18T03:33:31.541Z,0.47
2022-10-18T03:35:59.600Z,0.20
2022-10-18T03:38:29.063Z,0.20
2022-10-18T03:40:57.214Z,0.20
2022-10-18T03:43:25.412Z,0.13
2022-10-18T03:45:53.442Z,0.40
2022-10-18T03:48:21.953Z,0.30
2022-10-18T03:50:50.051Z,0.65
2022-10-18T03:53:18.149Z,0.50
2022-10-18T03:55:52.005Z,0.45
2022-10-18T03:58:20.222Z,0.10
2022-10-18T04:00:51.072Z,0.20
2022-10-18T04:03:19.292Z,0.20
2022-10-18T04:05:48.043Z,0.17
2022-10-18T04:08:17.203Z,0.35
2022-10-18T04:10:45.612Z,0.98
2022-10-18T04:13:15.071Z,0.05
2022-10-18T04:15:43.932Z,0.20
2022-10-18T04:18:12.093Z,0.30
2022-10-18T04:20:40.159Z,0.10
2022-10-18T04:23:08.313Z,0.20
2022-10-18T04:25:36.346Z,0.10
2022-10-18T04:28:05.045Z,0.00
2022-10-18T04:30:34.471Z,0.30
2022-10-18T04:33:02.562Z,0.20
2022-10-18T04:35:30.642Z,0.17
2022-10-18T04:37:58.782Z,0.43
2022-10-18T04:40:26.902Z,0.20
2022-10-18T04:42:54.991Z,0.30
2022-10-18T04:45:23.020Z,0.10
2022-10-18T04:47:52.564Z,0.63
2022-10-18T04:50:20.993Z,0.17
2022-10-18T04:55:18.205Z,0.22
2022-10-18T04:57:46.303Z,0.15
2022-10-18T05:00:15.441Z,0.65
2022-10-18T05:02:43.462Z,0.20
2022-10-18T05:05:14.161Z,0.25
2022-10-18T05:07:42.903Z,0.10
2022-10-18T05:10:11.106Z,0.30
2022-10-18T05:12:39.508Z,0.25
2022-10-18T05:15:08.431Z,0.30
2022-10-18T05:17:37.054Z,0.20
2022-10-18T05:20:05.789Z,0.20
2022-10-18T05:22:35.398Z,0.20
2022-10-18T05:25:03.843Z,0.20
2022-10-18T05:27:32.325Z,0.38
2022-10-18T05:30:04.523Z,0.08
2022-10-18T05:32:34.216Z,0.28
2022-10-18T05:35:02.563Z,0.50
2022-10-18T05:37:30.623Z,0.20
2022-10-18T05:39:59.950Z,0.38
2022-10-18T05:42:28.160Z,0.00
2022-10-18T05:44:56.212Z,0.40
2022-10-18T05:47:24.379Z,0.15
2022-10-18T05:49:52.465Z,0.10
2022-10-18T05:52:20.582Z,0.17
2022-10-18T05:54:48.640Z,0.17
2022-10-18T05:57:18.164Z,0.30
2022-10-18T05:59:46.324Z,0.30
2022-10-18T06:02:14.577Z,0.13
2022-10-18T06:04:42.724Z,0.10
2022-10-18T06:07:11.291Z,0.20
2022-10-18T06:09:39.811Z,0.20
2022-10-18T06:12:09.046Z,0.13
2022-10-18T06:14:38.734Z,0.20
2022-10-18T06:17:06.824Z,0.20
2022-10-18T06:19:34.953Z,0.13
2022-10-18T06:22:03.022Z,0.40
2022-10-18T06:24:31.034Z,0.45
2022-10-18T06:26:59.345Z,0.15
2022-10-18T06:29:27.503Z,0.40
2022-10-18T06:31:56.836Z,0.10
2022-10-18T06:34:24.890Z,0.30
2022-10-18T06:36:56.357Z,0.13
2022-10-18T06:39:26.511Z,0.10
2022-10-18T06:41:54.834Z,0.10
2022-10-18T06:44:23.302Z,0.10
2022-10-18T06:46:53.466Z,0.50
2022-10-18T06:49:23.445Z,0.25
2022-10-18T06:51:51.561Z,0.15
2022-10-18T06:54:19.774Z,0.10
2022-10-18T06:56:47.881Z,0.10
2022-10-18T06:59:16.351Z,0.20
2022-10-18T07:01:44.710Z,0.10
2022-10-18T07:04:12.972Z,0.17
2022-10-18T07:06:42.781Z,0.30
2022-10-18T07:09:11.133Z,0.30
2022-10-18T07:11:39.214Z,0.20
2022-10-18T07:14:07.515Z,0.15
2022-10-18T07:16:36.833Z,0.20
2022-10-18T07:19:05.205Z,0.22
2022-10-18T07:21:33.363Z,0.10
2022-10-18T07:24:02.749Z,0.30
2022-10-18T07:26:33.186Z,0.20
2022-10-18T07:29:03.509Z,0.10
2022-10-18T07:31:32.315Z,0.30
2022-10-18T07:34:00.706Z,0.30
2022-10-18T07:36:28.819Z,0.00
2022-10-18T07:38:57.352Z,0.20
2022-10-18T07:41:27.213Z,0.28
2022-10-18T07:43:55.300Z,0.30
2022-10-18T07:46:24.093Z,0.10
2022-10-18T07:48:53.133Z,0.30
2022-10-18T07:51:22.142Z,0.50
2022-10-18T07:53:50.264Z,0.50
2022-10-18T07:56:20.893Z,0.80
2022-10-18T07:58:52.533Z,0.28
2022-10-18T08:01:21.696Z,0.35
2022-10-18T08:03:50.193Z,0.40
2022-10-18T08:06:19.678Z,0.70
2022-10-18T08:08:48.307Z,0.52
2022-10-18T08:11:19.413Z,0.40
2022-10-18T08:13:48.042Z,0.50
2022-10-18T08:16:20.202Z,0.40
2022-10-18T08:18:48.840Z,0.70
2022-10-18T08:21:18.103Z,0.50
2022-10-18T08:23:46.693Z,0.68
2022-10-18T08:26:17.533Z,0.40
2022-10-18T08:28:54.000Z,0.30
2022-10-18T08:31:27.962Z,0.60
2022-10-18T08:33:56.789Z,0.57
2022-10-18T08:36:25.371Z,0.85
2022-10-18T08:38:53.702Z,0.70
2022-10-18T08:41:44.140Z,0.80
2022-10-18T08:44:19.144Z,0.73
2022-10-18T08:46:51.196Z,0.60
2022-10-18T08:49:26.751Z,0.98
2022-10-18T08:51:55.832Z,0.85
2022-10-18T08:54:31.822Z,1.33
2022-10-18T08:57:02.692Z,1.55
2022-10-18T08:59:39.022Z,1.38
2022-10-18T09:02:20.221Z,1.60
2022-10-18T09:04:55.339Z,1.05
2022-10-18T09:07:40.702Z,1.00
2022-10-18T09:10:22.324Z,0.98
2022-10-18T09:13:08.932Z,1.13
2022-10-18T09:15:44.560Z,1.13
2022-10-18T09:18:27.908Z,1.33
2022-10-18T09:20:59.061Z,1.30
2022-10-18T09:23:42.755Z,1.17
2022-10-18T09:26:16.124Z,1.15
2022-10-18T09:28:53.958Z,1.30
2022-10-18T09:31:27.506Z,1.48
2022-10-18T09:34:02.040Z,1.48
2022-10-18T09:36:35.714Z,1.40
2022-10-18T09:39:10.204Z,1.33
2022-10-18T09:41:44.643Z,1.65
2022-10-18T09:44:18.266Z,1.35
2022-10-18T09:46:50.830Z,1.25
2022-10-18T09:49:24.375Z,1.35
2022-10-18T09:51:54.712Z,2.38
2022-10-18T09:54:29.198Z,1.80
2022-10-18T09:57:05.818Z,1.33
2022-10-18T09:59:38.416Z,1.27
2022-10-18T10:02:07.286Z,2.45
2022-10-18T10:04:36.792Z,2.85
2022-10-18T10:07:09.594Z,2.05
2022-10-18T10:09:45.161Z,1.92
2022-10-18T10:12:27.812Z,2.30
2022-10-18T10:14:56.371Z,2.05
2022-10-18T10:17:27.552Z,2.17
2022-10-18T10:20:03.783Z,2.22
2022-10-18T10:22:36.422Z,2.10
2022-10-18T10:25:05.580Z,1.92
2022-10-18T10:27:41.132Z,2.55
2022-10-18T10:30:24.907Z,2.35
2022-10-18T10:32:54.677Z,2.20
2022-10-18T10:35:35.532Z,2.38
2022-10-18T10:40:52.593Z,1.38
2022-10-18T10:43:37.195Z,1.75
2022-10-18T10:46:09.771Z,1.17
2022-10-18T10:48:47.684Z,0.80
2022-10-18T10:51:20.078Z,0.80
2022-10-18T10:53:52.481Z,0.88
2022-10-18T10:56:26.688Z,0.47
2022-10-18T10:58:56.600Z,0.60
2022-10-18T11:01:33.302Z,1.35
2022-10-18T11:04:04.891Z,1.70
2022-10-18T11:06:46.112Z,1.10
2022-10-18T11:09:27.942Z,0.80
2022-10-18T11:12:05.323Z,1.25
2022-10-18T11:14:38.024Z,0.80
2022-10-18T11:17:18.871Z,1.27
2022-10-18T11:20:03.303Z,1.05
2022-10-18T11:22:37.383Z,0.63
2022-10-18T11:25:06.651Z,0.77
2022-10-18T11:27:42.134Z,1.13
2022-10-18T11:30:30.644Z,0.98
2022-10-18T11:33:07.791Z,0.73
2022-10-18T11:35:45.573Z,1.15
2022-10-18T11:38:27.303Z,1.98
2022-10-18T11:41:07.750Z,2.88
2022-10-18T11:44:01.135Z,2.80
2022-10-18T11:46:45.302Z,2.05
2022-10-18T11:49:28.623Z,1.17
2022-10-18T11:52:09.353Z,1.20
2022-10-18T11:55:04.083Z,1.10
2022-10-18T11:57:44.432Z,1.58
2022-10-18T12:00:29.924Z,1.13
2022-10-18T12:03:13.264Z,1.38
2022-10-18T12:05:44.332Z,1.25
2022-10-18T12:08:16.313Z,0.95
2022-10-18T12:11:06.886Z,1.23
2022-10-18T12:13:41.595Z,1.00
2022-10-18T12:16:11.029Z,0.52
2022-10-18T12:18:50.883Z,0.30
2022-10-18T12:21:25.462Z,0.70
2022-10-18T12:23:57.901Z,0.68
2022-10-18T12:26:29.951Z,0.57
2022-10-18T12:29:12.127Z,0.60
2022-10-18T12:31:44.582Z,0.50
2022-10-18T12:34:27.473Z,0.40
2022-10-18T12:37:10.012Z,0.75
2022-10-18T12:40:08.637Z,0.65
2022-10-18T12:42:41.714Z,0.75
2022-10-18T12:45:24.132Z,0.60
2022-10-18T12:47:52.852Z,0.50
2022-10-18T12:50:31.114Z,0.50
2022-10-18T12:53:19.162Z,0.60
2022-10-18T12:55:49.343Z,0.95
2022-10-18T12:58:28.244Z,0.60
2022-10-18T13:00:58.853Z,0.40
2022-10-18T13:03:53.571Z,0.43
2022-10-18T13:06:24.299Z,0.60
2022-10-18T13:09:17.302Z,1.00
2022-10-18T13:11:45.924Z,0.57
2022-10-18T13:14:35.637Z,0.50
2022-10-18T13:17:14.701Z,0.82
2022-10-18T13:20:07.619Z,0.90
2022-10-18T13:23:02.314Z,0.88
2022-10-18T13:25:37.307Z,0.75
2022-10-18T13:28:23.803Z,1.13
2022-10-18T13:30:58.529Z,0.60
2022-10-18T13:33:34.216Z,0.32
2022-10-18T13:36:04.573Z,0.52
2022-10-18T13:38:43.754Z,0.77
2022-10-18T13:41:14.631Z,0.35
2022-10-18T13:44:24.803Z,0.75
2022-10-18T13:47:14.452Z,0.40
2022-10-18T13:49:59.574Z,0.40
2022-10-18T13:52:36.360Z,0.63
2022-10-18T13:55:26.752Z,0.52
2022-10-18T13:58:05.004Z,0.50
2022-10-18T14:00:51.312Z,0.90
2022-10-18T14:03:58.107Z,0.52
2022-10-18T14:06:30.200Z,0.52
2022-10-18T14:09:09.584Z,0.70
2022-10-18T14:11:51.771Z,0.65
2022-10-18T14:14:29.873Z,0.40
2022-10-18T14:17:17.760Z,0.80
2022-10-18T14:19:53.421Z,0.63
2022-10-18T14:22:25.831Z,0.77
2022-10-18T14:24:58.456Z,0.60
2022-10-18T14:27:28.554Z,0.70
2022-10-18T14:30:15.054Z,0.90
2022-10-18T14:32:46.467Z,0.70
2022-10-18T14:35:37.370Z,0.70
2022-10-18T14:38:14.483Z,1.00
2022-10-18T14:40:42.944Z,0.80
2022-10-18T14:43:13.597Z,0.85
2022-10-18T14:45:42.892Z,0.40
2022-10-18T14:48:17.000Z,0.70
2022-10-18T14:50:50.008Z,0.40
2022-10-18T14:53:22.120Z,0.30
2022-10-18T14:55:55.955Z,0.60
2022-10-18T14:58:24.633Z,0.50
2022-10-18T15:00:52.843Z,0.40
2022-10-18T15:03:21.938Z,0.63
2022-10-18T15:05:56.415Z,0.80
2022-10-18T15:08:26.012Z,0.60
2022-10-18T15:10:54.880Z,0.63
2022-10-18T15:13:25.225Z,0.68
2022-10-18T15:15:54.402Z,0.40
2022-10-18T15:18:25.083Z,0.40
2022-10-18T15:21:23.519Z,1.00
2022-10-18T15:23:52.531Z,0.75
2022-10-18T15:26:26.515Z,0.65
2022-10-18T15:29:00.444Z,0.70
2022-10-18T15:31:35.795Z,0.50
2022-10-18T15:34:11.890Z,0.60
2022-10-18T15:36:41.476Z,1.33
2022-10-18T15:39:17.173Z,0.85
2022-10-18T15:41:50.246Z,1.17
2022-10-18T15:44:25.483Z,1.00
2022-10-18T15:46:55.923Z,1.17
2022-10-18T15:49:52.514Z,1.10
2022-10-18T15:52:43.222Z,1.33
2022-10-18T15:55:48.084Z,1.48
2022-10-18T15:58:22.991Z,1.02
2022-10-18T16:00:53.621Z,1.60
2022-10-18T16:03:23.961Z,0.88
2022-10-18T16:05:57.014Z,0.80
2022-10-18T16:08:30.467Z,0.70
2022-10-18T16:11:00.172Z,0.80
2022-10-18T16:13:28.701Z,0.60
2022-10-18T16:15:57.066Z,0.82
2022-10-18T16:18:26.297Z,0.85
2022-10-18T16:20:54.644Z,0.63
2022-10-18T16:23:28.678Z,0.90
2022-10-18T16:25:57.004Z,0.75
2022-10-18T16:28:26.822Z,1.00
2022-10-18T16:30:57.359Z,0.70
2022-10-18T16:33:26.232Z,1.05
2022-10-18T16:35:54.892Z,0.68
2022-10-18T16:38:32.521Z,0.98
2022-10-18T16:41:04.125Z,0.88
2022-10-18T16:43:32.836Z,0.90
2022-10-18T16:46:01.236Z,1.33
2022-10-18T16:48:29.702Z,0.90
2022-10-18T16:50:58.224Z,1.10
2022-10-18T16:53:28.202Z,1.10
2022-10-18T16:55:59.514Z,0.98
2022-10-18T16:58:29.308Z,1.23
2022-10-18T17:00:58.262Z,1.08
2022-10-18T17:03:27.302Z,0.65
2022-10-18T17:05:56.306Z,1.33
2022-10-18T17:08:26.875Z,0.80
2022-10-18T17:10:58.374Z,0.63
2022-10-18T17:13:27.532Z,0.90
2022-10-18T17:15:55.706Z,0.90
2022-10-18T17:18:26.402Z,1.10
2022-10-18T17:20:55.154Z,0.93
2022-10-18T17:23:23.218Z,0.75
2022-10-18T17:26:06.908Z,0.75
2022-10-18T17:28:41.452Z,1.00
2022-10-18T17:31:09.701Z,1.27
2022-10-18T17:33:38.215Z,0.80
2022-10-18T17:36:06.751Z,1.02
2022-10-18T17:38:35.199Z,0.77
2022-10-18T17:41:07.628Z,0.75
2022-10-18T17:43:37.356Z,0.70
2022-10-18T17:46:07.391Z,0.85
2022-10-18T17:48:35.542Z,0.85
2022-10-18T17:51:08.542Z,0.85
2022-10-18T17:53:36.788Z,1.10
2022-10-18T17:56:05.222Z,1.13
2022-10-18T17:58:33.741Z,1.00
2022-10-18T18:01:12.261Z,0.95
2022-10-18T18:03:40.602Z,1.30
2022-10-18T18:06:17.172Z,1.15
2022-10-18T18:08:45.990Z,1.20
2022-10-18T18:11:14.511Z,1.10
2022-10-18T18:13:42.891Z,1.20
2022-10-18T18:16:14.331Z,0.85
2022-10-18T18:18:43.175Z,1.15
2022-10-18T18:21:11.300Z,0.73
2022-10-18T18:23:39.521Z,0.90
2022-10-18T18:26:08.077Z,1.23
2022-10-18T18:28:36.916Z,1.20
2022-10-18T18:31:08.725Z,0.90
2022-10-18T18:33:38.815Z,0.93
2022-10-18T18:36:07.742Z,0.98
2022-10-18T18:38:37.519Z,1.15
2022-10-18T18:41:07.421Z,0.80
2022-10-18T18:43:36.152Z,1.10
2022-10-18T18:46:04.912Z,0.77
2022-10-18T18:48:34.409Z,1.10
2022-10-18T18:51:05.249Z,0.90
2022-10-18T18:53:33.592Z,0.93
2022-10-18T18:56:03.836Z,0.85
2022-10-18T18:58:32.079Z,1.55
2022-10-18T19:01:00.232Z,1.67
2022-10-18T19:03:28.312Z,1.00
2022-10-18T19:06:06.022Z,1.15
2022-10-18T19:08:36.803Z,1.25
2022-10-18T19:11:08.946Z,1.10
2022-10-18T19:13:37.723Z,1.20
2022-10-18T19:16:25.572Z,1.25
2022-10-18T19:18:57.890Z,0.85
2022-10-18T19:21:30.105Z,0.63
2022-10-18T19:23:58.753Z,0.68
2022-10-18T19:26:32.000Z,0.85
2022-10-18T19:29:09.758Z,0.90
2022-10-18T19:31:39.112Z,1.08
2022-10-18T19:34:09.680Z,0.60
2022-10-18T19:36:40.509Z,0.95
2022-10-18T19:39:13.272Z,0.70
2022-10-18T19:41:42.264Z,1.17
2022-10-18T19:44:10.365Z,1.70
2022-10-18T19:46:38.472Z,0.57
2022-10-18T19:49:06.517Z,1.10
2022-10-18T19:51:34.773Z,0.70
2022-10-18T19:54:04.407Z,1.00
2022-10-18T19:56:32.651Z,1.05
2022-10-18T19:59:01.731Z,0.68
2022-10-18T20:01:30.552Z,0.90
2022-10-18T20:03:58.967Z,0.70
2022-10-18T20:06:27.982Z,1.02
2022-10-18T20:08:56.803Z,0.90
2022-10-18T20:11:27.601Z,0.98
2022-10-18T20:13:56.591Z,1.10
2022-10-18T20:16:28.607Z,0.57
2022-10-18T20:18:58.697Z,0.98
2022-10-18T20:21:28.743Z,1.10
2022-10-18T20:23:57.589Z,0.75
2022-10-18T20:26:26.972Z,0.75
2022-10-18T20:28:57.952Z,0.77
2022-10-18T20:31:28.256Z,1.00
2022-10-18T20:33:58.075Z,0.90
2022-10-18T20:36:27.281Z,0.80
2022-10-18T20:38:56.113Z,1.00
2022-10-18T20:41:27.839Z,0.70
2022-10-18T20:43:57.564Z,0.68
2022-10-18T20:46:26.834Z,0.85
2022-10-18T20:48:55.682Z,0.93
2022-10-18T20:51:24.193Z,0.57
2022-10-18T20:53:53.579Z,0.70
2022-10-18T20:56:24.001Z,0.77
2022-10-18T20:58:56.106Z,0.82
2022-10-18T21:01:26.191Z,1.10
2022-10-18T21:03:56.272Z,0.82
2022-10-18T21:06:26.924Z,1.08
2022-10-18T21:08:56.809Z,0.63
2022-10-18T21:11:25.713Z,0.70
2022-10-18T21:13:57.540Z,1.13
2022-10-18T21:16:26.393Z,0.73
2022-10-18T21:18:54.911Z,1.02
2022-10-18T21:21:24.959Z,0.65
2022-10-18T21:23:53.821Z,0.80
2022-10-18T21:26:24.424Z,0.93
2022-10-18T21:28:53.726Z,0.80
2022-10-18T21:31:24.871Z,1.05
2022-10-18T21:33:54.573Z,0.90
2022-10-18T21:36:23.123Z,1.15
2022-10-18T21:38:51.871Z,0.68
2022-10-18T21:41:21.824Z,0.93
2022-10-18T21:43:51.781Z,1.30
2022-10-18T21:46:22.422Z,1.13
2022-10-18T21:48:54.262Z,0.68
2022-10-18T21:51:24.441Z,0.95
2022-10-18T21:53:54.407Z,1.30
2022-10-18T21:56:24.831Z,1.20
2022-10-18T21:58:52.921Z,1.38
2022-10-18T22:01:23.177Z,0.98
2022-10-18T22:03:54.623Z,1.30
2022-10-18T22:06:24.146Z,1.15
2022-10-18T22:08:54.502Z,0.82
2022-10-18T22:11:25.281Z,1.13
2022-10-18T22:13:54.351Z,1.17
2022-10-18T22:16:23.032Z,1.10
2022-10-18T22:18:57.924Z,1.10
2022-10-18T22:21:26.531Z,1.08
2022-10-18T22:23:56.963Z,1.00
2022-10-18T22:26:26.851Z,1.15
2022-10-18T22:28:56.471Z,1.05
2022-10-18T22:31:26.673Z,1.00
2022-10-18T22:33:57.600Z,0.68
2022-10-18T22:36:26.661Z,1.05
2022-10-18T22:38:54.771Z,1.23
2022-10-18T22:41:23.091Z,1.35
2022-10-18T22:43:51.750Z,1.00
2022-10-18T22:46:20.471Z,0.80
2022-10-18T22:48:49.021Z,0.57
2022-10-18T22:51:18.449Z,1.08
2022-10-18T22:53:47.411Z,0.70
2022-10-18T22:56:18.161Z,1.13
2022-10-18T22:58:46.410Z,1.20
2022-10-18T23:01:16.621Z,1.02
2022-10-18T23:03:44.944Z,0.85
2022-10-18T23:06:22.661Z,1.17
2022-10-18T23:08:51.800Z,0.60
2022-10-18T23:11:20.003Z,0.52
2022-10-18T23:13:48.421Z,0.70
2022-10-18T23:16:17.400Z,0.95
2022-10-18T23:18:45.528Z,0.80
2022-10-18T23:21:14.725Z,0.88
2022-10-18T23:23:44.470Z,0.88
2022-10-18T23:26:14.561Z,1.00
2022-10-18T23:28:44.448Z,0.93
2022-10-18T23:31:14.680Z,0.93
2022-10-18T23:33:42.941Z,0.60
2022-10-18T23:36:11.601Z,0.70
2022-10-18T23:38:40.581Z,1.13
2022-10-18T23:41:11.751Z,0.95
2022-10-18T23:43:40.513Z,0.98
2022-10-18T23:46:09.482Z,1.10
2022-10-18T23:48:38.040Z,1.35
2022-10-18T23:51:06.890Z,0.93
2022-10-18T23:53:35.952Z,1.10
2022-10-18T23:56:06.120Z,0.60
2022-10-18T23:58:37.354Z,0.98
